Time;durP1;ratioP1;P1;durP2;ratioP2;P2;SDS_P1;SDS_P2;PMS_P1;PMS_P2;Temp;Humidity;BMP_temperature;BMP_pressure;BME280_temperature;BME280_humidity;BME280_pressure;Samples;Min_cycle;Max_cycle;Signal;HPM_P1;HPM_P2
2021/04/04 00:01:44;;;;;;;1999.90;999.90;;;6.70;99.90;;;;;;4838522;29;20204;-84
2021/04/04 00:04:09;;;;;;;1999.90;999.90;;;6.80;99.90;;;;;;4838539;29;20198;-84
2021/04/04 00:06:35;;;;;;;1999.90;999.90;;;6.80;99.90;;;;;;4838950;29;20430;-84
2021/04/04 00:09:01;;;;;;;1999.90;999.90;;;6.80;99.90;;;;;;4838663;29;20664;-84
2021/04/04 00:11:26;;;;;;;1999.90;999.90;;;6.80;99.90;;;;;;4838731;29;20172;-84
2021/04/04 00:13:52;;;;;;;1999.90;999.90;;;6.70;99.90;;;;;;4839162;29;20417;-84
2021/04/04 00:16:18;;;;;;;1999.90;999.90;;;6.60;99.90;;;;;;4838413;29;20680;-84
2021/04/04 00:18:44;;;;;;;1999.90;999.90;;;6.60;99.90;;;;;;4838357;29;20180;-84
2021/04/04 00:21:10;;;;;;;1999.90;999.90;;;6.60;99.90;;;;;;4838657;29;20449;-84
2021/04/04 00:23:36;;;;;;;1999.90;999.90;;;6.70;99.90;;;;;;4838728;29;20173;-84
2021/04/04 00:26:03;;;;;;;1999.90;999.90;;;6.60;99.90;;;;;;4838247;29;20196;-84
2021/04/04 00:28:29;;;;;;;1999.90;999.90;;;6.60;99.90;;;;;;4838891;29;20537;-84
2021/04/04 00:30:54;;;;;;;1999.90;999.90;;;6.60;99.90;;;;;;4822990;29;20676;-84
2021/04/04 00:33:20;;;;;;;1999.90;999.90;;;6.60;99.90;;;;;;4838497;29;20221;-84
2021/04/04 00:35:47;;;;;;;1999.90;999.90;;;6.50;99.90;;;;;;4837916;29;20184;-84
2021/04/04 00:38:13;;;;;;;1999.90;999.90;;;6.40;99.90;;;;;;4838621;29;20187;-84
2021/04/04 00:40:39;;;;;;;1999.90;999.90;;;6.50;99.90;;;;;;4841269;29;20193;-84
2021/04/04 00:43:06;;;;;;;1999.90;999.90;;;6.30;99.90;;;;;;4841635;29;20199;-84
2021/04/04 00:45:37;;;;;;;1999.90;999.90;;;6.30;99.90;;;;;;4840627;29;20169;-84
2021/04/04 00:48:04;;;;;;;1999.90;999.90;;;6.30;99.90;;;;;;4825337;29;20168;-84
2021/04/04 00:50:33;;;;;;;1999.90;999.90;;;6.30;99.90;;;;;;4841212;29;20176;-84
2021/04/04 00:52:59;;;;;;;1999.90;999.90;;;6.40;99.90;;;;;;4840758;29;20180;-84
2021/04/04 00:55:26;;;;;;;1999.90;999.90;;;6.30;99.90;;;;;;4841473;29;20169;-84
2021/04/04 00:57:53;;;;;;;1999.90;999.90;;;6.20;99.90;;;;;;4824873;29;20201;-84
2021/04/04 01:00:22;;;;;;;1999.90;999.90;;;6.10;99.90;;;;;;4841318;29;20204;-84
2021/04/04 01:02:50;;;;;;;1999.90;999.90;;;6.10;99.90;;;;;;4840908;29;20181;-84
2021/04/04 01:05:22;;;;;;;1999.90;999.90;;;6.20;99.90;;;;;;4841419;29;20175;-84
2021/04/04 01:07:48;;;;;;;1999.90;999.90;;;6.20;99.90;;;;;;4840481;29;20754;-84
2021/04/04 01:10:14;;;;;;;1999.90;999.90;;;6.20;99.90;;;;;;4825244;29;20244;-84
2021/04/04 01:12:43;;;;;;;1999.90;999.90;;;6.20;99.90;;;;;;4841288;29;20429;-84
2021/04/04 01:15:15;;;;;;;1999.90;999.90;;;6.30;99.90;;;;;;4840349;29;20183;-84
2021/04/04 01:17:43;;;;;;;1999.90;999.90;;;6.30;99.90;;;;;;4840642;29;20201;-84
2021/04/04 01:20:19;;;;;;;1999.90;999.90;;;6.20;99.90;;;;;;4841097;29;20216;-84
2021/04/04 01:22:57;;;;;;;1999.90;999.90;;;6.20;99.90;;;;;;4840556;29;20172;-84
2021/04/04 01:25:38;;;;;;;1999.90;999.90;;;6.20;99.90;;;;;;4824864;29;20506;-84
2021/04/04 01:28:08;;;;;;;1999.90;999.90;;;6.30;99.90;;;;;;4841149;29;20179;-84
2021/04/04 01:30:36;;;;;;;1999.90;999.90;;;6.20;99.90;;;;;;4825178;29;20168;-84
2021/04/04 01:33:04;;;;;;;1999.90;999.90;;;6.30;99.90;;;;;;4824875;29;20184;-84
2021/04/04 01:35:34;;;;;;;1999.90;999.90;;;6.20;99.90;;;;;;4824408;29;20177;-83
2021/04/04 01:38:10;;;;;;;1999.90;999.90;;;6.20;99.90;;;;;;4840523;29;20170;-84
2021/04/04 01:40:36;;;;;;;1999.90;999.90;;;6.20;99.90;;;;;;4841046;29;20675;-84
2021/04/04 01:43:05;;;;;;;1999.90;999.90;;;6.20;99.90;;;;;;4841109;29;20168;-84
2021/04/04 01:45:31;;;;;;;1999.90;999.90;;;6.30;99.90;;;;;;4840841;29;20176;-84
2021/04/04 01:47:59;;;;;;;1999.90;999.90;;;6.30;99.90;;;;;;4840434;29;20240;-84
2021/04/04 01:50:26;;;;;;;1999.90;999.90;;;6.30;99.90;;;;;;4840357;29;20176;-84
2021/04/04 01:52:52;;;;;;;1999.90;999.90;;;6.20;99.90;;;;;;4840468;29;20202;-84
2021/04/04 01:55:18;;;;;;;1999.90;999.90;;;6.30;99.90;;;;;;4840256;29;20238;-84
2021/04/04 01:57:47;;;;;;;1999.90;999.90;;;6.30;99.90;;;;;;4840732;29;20268;-84
2021/04/04 02:00:19;;;;;;;1999.90;999.90;;;6.20;99.90;;;;;;4841097;29;20196;-84
2021/04/04 02:02:46;;;;;;;1999.90;999.90;;;6.20;99.90;;;;;;4840473;29;20164;-84
2021/04/04 02:05:14;;;;;;;1999.90;999.90;;;6.30;99.90;;;;;;4824424;29;20218;-84
2021/04/04 02:07:42;;;;;;;1999.90;999.90;;;6.30;99.90;;;;;;4840635;29;20181;-84
2021/04/04 02:10:18;;;;;;;1999.90;999.90;;;6.30;99.90;;;;;;4840032;29;20196;-84
2021/04/04 02:12:44;;;;;;;1999.90;999.90;;;6.40;99.90;;;;;;4841047;29;20255;-84
2021/04/04 02:15:14;;;;;;;1999.90;999.90;;;6.50;99.90;;;;;;4840247;29;20173;-84
2021/04/04 02:17:42;;;;;;;1999.90;999.90;;;6.40;99.90;;;;;;4840211;29;20192;-84
2021/04/04 02:20:12;;;;;;;1999.90;999.90;;;6.40;99.90;;;;;;4839587;29;20224;-84
2021/04/04 02:22:40;;;;;;;1999.90;999.90;;;6.30;99.90;;;;;;4823911;29;20248;-84
2021/04/04 02:25:10;;;;;;;1999.90;999.90;;;6.30;99.90;;;;;;4823519;29;20664;-84
2021/04/04 02:27:37;;;;;;;1999.90;999.90;;;6.40;99.90;;;;;;4840873;29;20197;-84
2021/04/04 02:30:07;;;;;;;1999.90;999.90;;;6.40;99.90;;;;;;4839706;29;20169;-84
2021/04/04 02:32:41;;;;;;;1999.90;999.90;;;6.40;99.90;;;;;;4840433;29;20197;-84
2021/04/04 02:35:08;;;;;;;1999.90;999.90;;;6.30;99.90;;;;;;4823936;29;20172;-84
2021/04/04 02:37:39;;;;;;;1999.90;999.90;;;6.30;99.90;;;;;;4839966;29;20240;-84
2021/04/04 02:40:09;;;;;;;1999.90;999.90;;;6.30;99.90;;;;;;4840638;29;20189;-84
2021/04/04 02:42:36;;;;;;;1999.90;999.90;;;6.30;99.90;;;;;;4839536;29;20168;-84
2021/04/04 02:45:05;;;;;;;1999.90;999.90;;;6.30;99.90;;;;;;4839924;29;20220;-84
2021/04/04 02:47:45;;;;;;;1999.90;999.90;;;6.30;99.90;;;;;;4839910;29;20189;-84
2021/04/04 02:50:12;;;;;;;1999.90;999.90;;;6.40;99.90;;;;;;4839204;29;20157;-84
2021/04/04 02:52:41;;;;;;;1999.90;999.90;;;6.40;99.90;;;;;;4839318;29;20172;-84
2021/04/04 02:55:15;;;;;;;1999.90;999.90;;;6.50;99.90;;;;;;4839805;29;20172;-84
2021/04/04 02:57:42;;;;;;;1999.90;999.90;;;6.40;99.90;;;;;;4839663;29;20192;-84
2021/04/04 03:00:09;;;;;;;1999.90;999.90;;;6.40;99.90;;;;;;4839830;29;20219;-84
2021/04/04 03:02:38;;;;;;;1999.90;999.90;;;6.40;99.90;;;;;;4839100;29;20204;-84
2021/04/04 03:05:07;;;;;;;1999.90;999.90;;;6.30;99.90;;;;;;4838866;29;20227;-84
2021/04/04 03:07:40;;;;;;;1999.90;999.90;;;6.20;99.90;;;;;;4838991;29;20203;-84
2021/04/04 03:10:07;;;;;;;1999.90;999.90;;;6.20;99.90;;;;;;4839971;29;20191;-84
2021/04/04 03:12:36;;;;;;;1999.90;999.90;;;6.30;99.90;;;;;;4839558;29;20247;-84
2021/04/04 03:15:05;;;;;;;1999.90;999.90;;;6.30;99.90;;;;;;4822895;29;20210;-84
2021/04/04 03:17:31;;;;;;;1999.90;999.90;;;6.30;99.90;;;;;;4823105;29;20233;-84
2021/04/04 03:19:59;;;;;;;1999.90;999.90;;;6.30;99.90;;;;;;4838392;29;20197;-84
2021/04/04 03:22:27;;;;;;;1999.90;999.90;;;6.30;99.90;;;;;;4839500;29;20169;-84
2021/04/04 03:24:54;;;;;;;1999.90;999.90;;;6.20;99.90;;;;;;4823363;29;20175;-84
2021/04/04 03:27:21;;;;;;;1999.90;999.90;;;6.20;99.90;;;;;;4839561;29;20192;-84
2021/04/04 03:29:47;;;;;;;1999.90;999.90;;;6.20;99.90;;;;;;4822533;29;20176;-84
2021/04/04 03:32:13;;;;;;;1999.90;999.90;;;6.20;99.90;;;;;;4839404;29;20165;-84
2021/04/04 03:34:40;;;;;;;1999.90;999.90;;;6.10;99.90;;;;;;4838558;29;20189;-84
2021/04/04 03:37:06;;;;;;;1999.90;999.90;;;6.10;99.90;;;;;;4838812;29;20194;-84
2021/04/04 03:39:31;;;;;;;1999.90;999.90;;;6.10;99.90;;;;;;4838540;29;20194;-84
2021/04/04 03:42:00;;;;;;;1999.90;999.90;;;6.20;99.90;;;;;;4839111;29;20212;-84
2021/04/04 03:44:29;;;;;;;1999.90;999.90;;;6.10;99.90;;;;;;4838461;29;20165;-84
2021/04/04 03:46:56;;;;;;;1999.90;999.90;;;6.10;99.90;;;;;;4838249;29;20199;-84
2021/04/04 03:49:23;;;;;;;1999.90;999.90;;;6.10;99.90;;;;;;4821329;29;20200;-84
2021/04/04 03:51:56;;;;;;;1999.90;999.90;;;6.10;99.90;;;;;;4837819;29;20179;-84
2021/04/04 03:54:24;;;;;;;1999.90;999.90;;;6.00;99.90;;;;;;4839383;29;20153;-84
2021/04/04 03:56:51;;;;;;;1999.90;999.90;;;6.00;99.90;;;;;;4839065;29;20252;-84
2021/04/04 03:59:17;;;;;;;1999.90;999.90;;;6.00;99.90;;;;;;4822844;29;20665;-84
2021/04/04 04:01:48;;;;;;;1999.90;999.90;;;6.00;99.90;;;;;;4838836;29;20168;-84
2021/04/04 04:04:15;;;;;;;1999.90;999.90;;;6.10;99.90;;;;;;4838932;29;20173;-84
2021/04/04 04:06:43;;;;;;;1999.90;999.90;;;6.10;99.90;;;;;;4838603;29;20238;-84
2021/04/04 04:09:13;;;;;;;1999.90;999.90;;;6.10;99.90;;;;;;4839172;29;20649;-84
2021/04/04 04:11:41;;;;;;;1999.90;999.90;;;6.20;99.90;;;;;;4838299;29;20216;-84
2021/04/04 04:14:10;;;;;;;1999.90;999.90;;;6.40;99.90;;;;;;4839326;29;20648;-84
2021/04/04 04:16:37;;;;;;;1999.90;999.90;;;6.40;99.90;;;;;;4841685;29;20209;-84
2021/04/04 04:19:05;;;;;;;1999.90;999.90;;;6.40;99.90;;;;;;4841309;29;20184;-84
2021/04/04 04:21:36;;;;;;;1999.90;999.90;;;6.30;99.90;;;;;;4841804;29;20204;-84
2021/04/04 04:24:04;;;;;;;1999.90;999.90;;;6.30;99.90;;;;;;4838090;29;20305;-83
2021/04/04 04:26:32;;;;;;;1999.90;999.90;;;6.30;99.90;;;;;;4840361;29;20199;-84
2021/04/04 04:28:59;;;;;;;1999.90;999.90;;;6.30;99.90;;;;;;4841973;29;20202;-84
2021/04/04 04:31:30;;;;;;;1999.90;999.90;;;6.30;99.90;;;;;;4842311;29;20173;-84
2021/04/04 04:33:57;;;;;;;1999.90;999.90;;;6.30;99.90;;;;;;4842213;29;20153;-84
2021/04/04 04:36:24;;;;;;;1999.90;999.90;;;6.40;99.90;;;;;;4841527;29;20203;-84
2021/04/04 04:38:51;;;;;;;1999.90;999.90;;;6.40;99.90;;;;;;4840989;29;20172;-84
2021/04/04 04:41:18;;;;;;;1999.90;999.90;;;6.30;99.90;;;;;;4840937;29;20203;-84
2021/04/04 04:43:48;;;;;;;1999.90;999.90;;;6.20;99.90;;;;;;4825283;29;20173;-84
2021/04/04 04:46:15;;;;;;;1999.90;999.90;;;6.20;99.90;;;;;;4824832;29;20188;-84
2021/04/04 04:48:41;;;;;;;1999.90;999.90;;;6.30;99.90;;;;;;4841744;29;20168;-84
2021/04/04 04:51:08;;;;;;;1999.90;999.90;;;6.20;99.90;;;;;;4841927;29;20233;-84
2021/04/04 04:53:34;;;;;;;1999.90;999.90;;;6.20;99.90;;;;;;4841817;29;20232;-84
2021/04/04 04:56:01;;;;;;;1999.90;999.90;;;6.20;99.90;;;;;;4841694;29;20188;-84
2021/04/04 04:58:36;;;;;;;1999.90;999.90;;;6.20;99.90;;;;;;4825099;29;20425;-84
2021/04/04 05:01:06;;;;;;;1999.90;999.90;;;6.20;99.90;;;;;;4841770;29;20195;-84
2021/04/04 05:03:32;;;;;;;1999.90;999.90;;;6.20;99.90;;;;;;4841642;29;20157;-84
2021/04/04 05:06:10;;;;;;;1999.90;999.90;;;6.30;99.90;;;;;;4824761;29;20271;-84
2021/04/04 05:08:41;;;;;;;1999.90;999.90;;;6.40;99.90;;;;;;4841551;29;20417;-84
2021/04/04 05:11:11;;;;;;;1999.90;999.90;;;6.30;99.90;;;;;;4842011;29;20172;-84
2021/04/04 05:13:39;;;;;;;1999.90;999.90;;;6.30;99.90;;;;;;4842056;29;20164;-84
2021/04/04 05:16:12;;;;;;;1999.90;999.90;;;6.40;99.90;;;;;;4841150;29;20576;-84
2021/04/04 05:18:49;;;;;;;1999.90;999.90;;;6.30;99.90;;;;;;4840702;29;20506;-84
2021/04/04 05:21:25;;;;;;;1999.90;999.90;;;6.30;99.90;;;;;;4841667;29;20216;-84
2021/04/04 05:24:02;;;;;;;1999.90;999.90;;;6.30;99.90;;;;;;4842409;29;20196;-84
2021/04/04 05:26:39;;;;;;;1999.90;999.90;;;6.40;99.90;;;;;;4825571;29;20604;-84
2021/04/04 05:29:07;;;;;;;1999.90;999.90;;;6.40;99.90;;;;;;4842398;29;20160;-84
2021/04/04 05:31:33;;;;;;;1999.90;999.90;;;6.50;99.90;;;;;;4842100;29;20200;-84
2021/04/04 05:34:00;;;;;;;1999.90;999.90;;;6.50;99.90;;;;;;4841914;29;20188;-84
2021/04/04 05:36:26;;;;;;;1999.90;999.90;;;6.50;99.90;;;;;;4825591;29;20441;-84
2021/04/04 05:38:58;;;;;;;1999.90;999.90;;;6.50;99.90;;;;;;4841466;29;20187;-84
2021/04/04 05:41:32;;;;;;;1999.90;999.90;;;6.50;99.90;;;;;;4841754;29;20268;-84
2021/04/04 05:44:01;;;;;;;1999.90;999.90;;;6.50;99.90;;;;;;4841917;29;20208;-84
2021/04/04 05:46:35;;;;;;;1999.90;999.90;;;6.50;99.90;;;;;;4841415;29;20275;-84
2021/04/04 05:49:12;;;;;;;1999.90;999.90;;;6.50;99.90;;;;;;4841344;29;20160;-84
2021/04/04 05:52:06;;;;;;;1999.90;999.90;;;6.60;99.90;;;;;;4841952;29;20202;-84
2021/04/04 05:54:39;;;;;;;1999.90;999.90;;;6.50;99.90;;;;;;4839541;29;20195;-84
2021/04/04 05:57:12;;;;;;;1999.90;999.90;;;6.60;99.90;;;;;;4824706;29;20279;-84
2021/04/04 05:59:54;;;;;;;1999.90;999.90;;;6.50;99.90;;;;;;4824814;29;20207;-84
2021/04/04 06:02:53;;;;;;;1999.90;999.90;;;6.60;99.90;;;;;;4841205;29;20165;-84
2021/04/04 06:05:40;;;;;;;1999.90;999.90;;;6.60;99.90;;;;;;4841432;29;20157;-84
2021/04/04 06:08:43;;;;;;;1999.90;999.90;;;6.60;99.90;;;;;;4841443;29;20149;-84
2021/04/04 06:11:46;;;;;;;1999.90;999.90;;;6.60;99.90;;;;;;4825005;29;20200;-84
2021/04/04 06:14:30;;;;;;;1999.90;999.90;;;6.60;99.90;;;;;;4841030;29;20228;-84
2021/04/04 06:17:19;;;;;;;1999.90;999.90;;;6.60;99.90;;;;;;4840477;29;20196;-84
2021/04/04 06:19:58;;;;;;;1999.90;999.90;;;6.60;99.90;;;;;;4840774;29;20267;-84
2021/04/04 06:22:58;;;;;;;1999.90;999.90;;;6.60;99.90;;;;;;4841308;29;20182;-84
2021/04/04 06:25:34;;;;;;;1999.90;999.90;;;6.60;99.90;;;;;;4824459;29;20169;-84
2021/04/04 06:28:20;;;;;;;1999.90;999.90;;;6.50;99.90;;;;;;4841550;29;20165;-84
2021/04/04 06:31:04;;;;;;;1999.90;999.90;;;6.60;99.90;;;;;;4840886;29;20213;-84
2021/04/04 06:33:45;;;;;;;1999.90;999.90;;;6.50;99.90;;;;;;4821572;29;20175;-84
2021/04/04 06:36:27;;;;;;;1999.90;999.90;;;6.50;99.90;;;;;;4840962;29;20192;-84
2021/04/04 06:39:16;;;;;;;1999.90;999.90;;;6.50;99.90;;;;;;4840652;29;20190;-84
2021/04/04 06:41:51;;;;;;;1999.90;999.90;;;6.60;99.90;;;;;;4840676;29;20180;-84
2021/04/04 06:44:44;;;;;;;1999.90;999.90;;;6.70;99.90;;;;;;4840396;29;20186;-84
2021/04/04 06:47:29;;;;;;;1999.90;999.90;;;6.70;99.90;;;;;;4840673;29;20259;-84
2021/04/04 06:50:04;;;;;;;1999.90;999.90;;;6.70;99.90;;;;;;4840706;29;20156;-84
2021/04/04 06:53:23;;;;;;;1999.90;999.90;;;6.70;99.90;;;;;;4843030;29;20185;-84
2021/04/04 06:56:12;;;;;;;1999.90;999.90;;;6.70;99.90;;;;;;4790330;29;20197;-84
2021/04/04 06:59:06;;;;;;;1999.90;999.90;;;6.80;99.90;;;;;;4841157;29;20156;-84
2021/04/04 07:01:59;;;;;;;1999.90;999.90;;;6.70;99.90;;;;;;4823937;29;20204;-84
2021/04/04 07:04:40;;;;;;;1999.90;999.90;;;6.70;99.90;;;;;;4840393;29;20561;-84
2021/04/04 07:07:37;;;;;;;1999.90;999.90;;;6.80;99.90;;;;;;4824531;29;20192;-84
2021/04/04 07:10:31;;;;;;;1999.90;999.90;;;6.90;99.90;;;;;;4840634;29;20183;-84
2021/04/04 07:13:34;;;;;;;1999.90;999.90;;;6.90;99.90;;;;;;4824741;29;20175;-84
2021/04/04 07:16:17;;;;;;;1999.90;999.90;;;7.00;99.90;;;;;;4824426;29;20236;-84
2021/04/04 07:18:48;;;;;;;1999.90;999.90;;;6.90;99.90;;;;;;4823674;29;20176;-84
2021/04/04 07:21:32;;;;;;;1999.90;999.90;;;7.00;99.90;;;;;;4823730;29;20291;-84
2021/04/04 07:24:16;;;;;;;1999.90;999.90;;;7.20;99.90;;;;;;4840319;29;20165;-84
2021/04/04 07:27:07;;;;;;;1999.90;999.90;;;7.20;99.90;;;;;;4839596;29;20217;-84
2021/04/04 07:29:36;;;;;;;1999.90;999.90;;;7.20;99.90;;;;;;4840344;29;20641;-84
2021/04/04 07:32:05;;;;;;;1999.90;999.90;;;7.40;99.90;;;;;;4840535;29;20176;-84
2021/04/04 07:34:53;;;;;;;1999.90;999.90;;;7.40;99.90;;;;;;4839278;29;20278;-84
2021/04/04 07:37:46;;;;;;;1999.90;999.90;;;7.40;99.90;;;;;;4840866;29;20212;-84
2021/04/04 07:40:22;;;;;;;1999.90;999.90;;;7.40;99.90;;;;;;4824441;29;20565;-84
2021/04/04 07:42:59;;;;;;;1999.90;999.90;;;7.40;99.90;;;;;;4840536;29;20167;-84
2021/04/04 07:45:31;;;;;;;1999.90;999.90;;;7.40;99.90;;;;;;4840114;29;20212;-84
2021/04/04 07:48:22;;;;;;;1999.90;999.90;;;7.30;98.30;;;;;;4823750;29;20165;-84
2021/04/04 07:51:00;;;;;;;1999.90;999.90;;;7.40;99.90;;;;;;4826947;29;20197;-84
2021/04/04 07:53:48;;;;;;;1999.90;999.90;;;7.40;99.90;;;;;;4843628;29;20176;-84
2021/04/04 07:56:22;;;;;;;1999.90;999.90;;;7.40;99.90;;;;;;4843733;29;20192;-84
2021/04/04 07:59:20;;;;;;;1999.90;999.90;;;7.40;99.90;;;;;;4826439;29;20184;-85
2021/04/04 08:02:15;;;;;;;1999.90;999.90;;;7.40;99.90;;;;;;4811481;29;20265;-84
2021/04/04 08:05:00;;;;;;;1999.90;999.90;;;7.50;99.90;;;;;;4813148;29;20201;-85
2021/04/04 08:07:43;;;;;;;1999.90;999.90;;;7.50;99.90;;;;;;4841693;29;20201;-84
2021/04/04 08:10:28;;;;;;;1999.90;999.90;;;7.60;99.90;;;;;;4826473;29;20165;-85
2021/04/04 08:12:57;;;;;;;1999.90;999.90;;;7.60;99.30;;;;;;4826875;29;20172;-85
2021/04/04 08:15:28;;;;;;;1999.90;999.90;;;7.60;99.00;;;;;;4826774;29;20183;-85
2021/04/04 08:17:55;;;;;;;1999.90;999.90;;;7.60;98.90;;;;;;4842620;29;20193;-84
2021/04/04 08:21:01;;;;;;;1999.90;999.90;;;7.70;98.80;;;;;;4825643;29;20212;-84
2021/04/04 08:23:44;;;;;;;1999.90;999.90;;;7.70;97.50;;;;;;4803768;30;20203;-84
2021/04/04 08:26:26;;;;;;;1999.90;999.90;;;7.80;98.10;;;;;;4838147;29;20212;-84
2021/04/04 08:29:10;;;;;;;1999.90;999.90;;;7.80;96.70;;;;;;4842532;29;20220;-84
2021/04/04 08:32:01;;;;;;;1999.90;999.90;;;7.90;94.30;;;;;;4842619;29;20747;-84
2021/04/04 08:34:35;;;;;;;1999.90;999.90;;;7.80;95.70;;;;;;4842420;29;20157;-85
2021/04/04 08:37:22;;;;;;;1999.90;999.90;;;7.80;96.30;;;;;;4825917;29;20236;-84
2021/04/04 08:39:54;;;;;;;1999.90;999.90;;;7.80;94.50;;;;;;4841472;29;20244;-85
2021/04/04 08:42:21;;;;;;;1999.90;999.90;;;7.90;94.30;;;;;;4841793;29;20613;-85
2021/04/04 08:45:07;;;;;;;1999.90;999.90;;;7.90;93.20;;;;;;4825873;29;20200;-84
2021/04/04 08:47:34;;;;;;;1999.90;999.90;;;7.90;93.90;;;;;;4826442;29;20680;-85
2021/04/04 08:50:10;;;;;;;1999.90;999.90;;;8.00;93.00;;;;;;4841859;29;20228;-85
2021/04/04 08:53:01;;;;;;;1999.90;999.90;;;8.00;94.20;;;;;;4842504;29;20153;-85
2021/04/04 08:55:29;;;;;;;1999.90;999.90;;;8.00;95.20;;;;;;4841036;29;20320;-85
2021/04/04 08:58:00;;;;;;;1999.90;999.90;;;7.90;94.10;;;;;;4841340;29;20181;-84
2021/04/04 09:00:28;;;;;;;1999.90;999.90;;;7.90;94.40;;;;;;4838288;29;20189;-85
2021/04/04 09:03:05;;;;;;;1999.90;999.90;;;7.80;93.90;;;;;;4840838;29;20259;-84
2021/04/04 09:05:34;;;;;;;1999.90;999.90;;;7.80;95.80;;;;;;4842013;29;20182;-84
2021/04/04 09:08:04;;;;;;;1999.90;999.90;;;7.80;96.40;;;;;;4841657;29;20177;-85
2021/04/04 09:10:40;;;;;;;1999.90;999.90;;;7.70;95.80;;;;;;4841488;29;20181;-85
2021/04/04 09:13:14;;;;;;;1999.90;999.90;;;7.80;96.00;;;;;;4841411;29;20244;-85
2021/04/04 09:15:55;;;;;;;1999.90;999.90;;;7.80;95.90;;;;;;4841778;29;20165;-85
2021/04/04 09:18:21;;;;;;;1999.90;999.90;;;7.80;96.20;;;;;;4824542;29;20236;-85
2021/04/04 09:20:49;;;;;;;1999.90;999.90;;;7.80;95.80;;;;;;4840502;29;20228;-85
2021/04/04 09:23:21;;;;;;;1999.90;999.90;;;7.80;97.60;;;;;;4840696;29;20168;-85
2021/04/04 09:25:58;;;;;;;1999.90;999.90;;;7.80;99.90;;;;;;4840936;29;20157;-84
2021/04/04 09:28:29;;;;;;;1999.90;999.90;;;7.70;98.20;;;;;;4840887;29;20159;-85
2021/04/04 09:30:58;;;;;;;1999.90;999.90;;;7.80;98.20;;;;;;4840754;29;20198;-85
2021/04/04 09:33:29;;;;;;;1999.90;999.90;;;7.70;98.50;;;;;;4841248;29;20177;-85
2021/04/04 09:36:01;;;;;;;1999.90;999.90;;;7.70;98.30;;;;;;4841613;29;20203;-85
2021/04/04 09:38:40;;;;;;;1999.90;999.90;;;7.60;98.50;;;;;;4842081;29;20194;-85
2021/04/04 09:41:08;;;;;;;1999.90;999.90;;;7.50;99.90;;;;;;4840732;29;20184;-85
2021/04/04 09:43:56;;;;;;;1999.90;999.90;;;7.50;99.90;;;;;;4840948;29;20548;-85
2021/04/04 09:46:21;;;;;;;1999.90;999.90;;;7.50;99.90;;;;;;4840447;29;20201;-85
2021/04/04 09:48:47;;;;;;;1999.90;999.90;;;7.50;99.90;;;;;;4840855;29;20224;-84
2021/04/04 09:51:18;;;;;;;1999.90;999.90;;;7.60;99.90;;;;;;4841299;29;20208;-84
2021/04/04 09:53:53;;;;;;;1999.90;999.90;;;7.50;99.90;;;;;;4841126;29;20165;-84
2021/04/04 09:56:31;;;;;;;1999.90;999.90;;;7.60;99.90;;;;;;4824337;29;20192;-84
2021/04/04 09:58:58;;;;;;;1999.90;999.90;;;7.60;99.90;;;;;;4823607;29;20204;-84
2021/04/04 10:01:26;;;;;;;1999.90;999.90;;;7.60;99.90;;;;;;4822244;29;20204;-84
2021/04/04 10:04:06;;;;;;;1999.90;999.90;;;7.60;99.90;;;;;;4818699;29;20267;-84
2021/04/04 10:06:36;;;;;;;1999.90;999.90;;;7.70;99.90;;;;;;4837799;29;20195;-85
2021/04/04 10:09:04;;;;;;;1999.90;999.90;;;7.80;99.90;;;;;;4823468;29;20180;-84
2021/04/04 10:11:31;;;;;;;1999.90;999.90;;;7.80;99.90;;;;;;4839258;29;20571;-85
2021/04/04 10:14:09;;;;;;;1999.90;999.90;;;7.90;99.90;;;;;;4840505;29;20256;-84
2021/04/04 10:16:35;;;;;;;1999.90;999.90;;;7.90;99.90;;;;;;4839230;29;20215;-84
2021/04/04 10:19:07;;;;;;;1999.90;999.90;;;7.90;99.90;;;;;;4839772;29;20184;-84
2021/04/04 10:21:53;;;;;;;1999.90;999.90;;;7.80;99.90;;;;;;4823669;29;20667;-84
2021/04/04 10:24:31;;;;;;;1999.90;999.90;;;7.80;99.90;;;;;;4839672;29;20165;-84
2021/04/04 10:27:15;;;;;;;1999.90;999.90;;;7.90;99.90;;;;;;4839224;29;20538;-84
2021/04/04 10:29:42;;;;;;;1999.90;999.90;;;8.00;99.90;;;;;;4839628;29;20169;-84
2021/04/04 10:32:07;;;;;;;1999.90;999.90;;;8.00;99.90;;;;;;4838571;29;20167;-84
2021/04/04 10:34:48;;;;;;;1999.90;999.90;;;8.10;99.90;;;;;;4839742;29;20169;-85
2021/04/04 10:37:25;;;;;;;1999.90;999.90;;;8.10;99.90;;;;;;4837804;29;20192;-84
2021/04/04 10:40:01;;;;;;;1999.90;999.90;;;8.10;99.90;;;;;;4823103;29;20272;-84
2021/04/04 10:42:27;;;;;;;1999.90;999.90;;;8.10;99.90;;;;;;4839583;29;20228;-85
2021/04/04 10:45:26;;;;;;;1999.90;999.90;;;8.20;99.90;;;;;;4838654;29;20164;-84
2021/04/04 10:48:06;;;;;;;1999.90;999.90;;;8.20;99.90;;;;;;4816984;29;20204;-84
2021/04/04 10:50:35;;;;;;;1999.90;999.90;;;8.20;99.90;;;;;;4839603;29;20160;-84
2021/04/04 10:53:01;;;;;;;1999.90;999.90;;;8.30;99.90;;;;;;4838303;29;20205;-85
2021/04/04 10:55:27;;;;;;;1999.90;999.90;;;8.40;98.30;;;;;;4839732;29;20192;-84
2021/04/04 10:57:55;;;;;;;1999.90;999.90;;;8.40;99.40;;;;;;4839681;29;20192;-84
2021/04/04 11:00:22;;;;;;;1999.90;999.90;;;8.50;98.40;;;;;;4839912;29;20267;-84
2021/04/04 11:02:48;;;;;;;1999.90;999.90;;;8.40;98.50;;;;;;4824021;29;20181;-84
2021/04/04 11:05:15;;;;;;;1999.90;999.90;;;8.40;98.10;;;;;;4823173;29;20173;-85
2021/04/04 11:07:42;;;;;;;1999.90;999.90;;;8.30;98.60;;;;;;4839341;29;20192;-85
2021/04/04 11:10:09;;;;;;;1999.90;999.90;;;8.40;99.00;;;;;;4839907;29;20636;-84
2021/04/04 11:12:37;;;;;;;1999.90;999.90;;;8.50;98.90;;;;;;4838741;29;20177;-84
2021/04/04 11:15:10;;;;;;;1999.90;999.90;;;8.70;97.30;;;;;;4821937;29;20271;-85
2021/04/04 11:17:36;;;;;;;1999.90;999.90;;;8.70;98.20;;;;;;4838646;29;20196;-84
2021/04/04 11:20:05;;;;;;;1999.90;999.90;;;8.70;96.70;;;;;;4864912;23;20232;-78
2021/04/04 11:22:33;;;;;;;1999.90;999.90;;;8.60;98.80;;;;;;4828094;29;20160;-78
2021/04/04 11:25:08;;;;;;;1999.90;999.90;;;8.70;97.60;;;;;;4809293;29;20233;-79
2021/04/04 11:27:40;;;;;;;1999.90;999.90;;;8.70;97.90;;;;;;4810094;29;20226;-78
2021/04/04 11:30:07;;;;;;;1999.90;999.90;;;8.80;97.60;;;;;;4810372;29;20172;-78
2021/04/04 11:32:33;;;;;;;1999.90;999.90;;;8.70;96.40;;;;;;4809975;29;20206;-78
2021/04/04 11:35:00;;;;;;;1999.90;999.90;;;8.70;97.60;;;;;;4826620;29;20578;-78
2021/04/04 11:37:29;;;;;;;1999.90;999.90;;;8.70;97.50;;;;;;4825281;29;20197;-78
2021/04/04 11:40:11;;;;;;;1999.90;999.90;;;8.50;98.70;;;;;;4808838;29;20213;-78
2021/04/04 11:42:36;;;;;;;1999.90;999.90;;;8.70;98.70;;;;;;4825474;29;20172;-78
2021/04/04 11:45:03;;;;;;;1999.90;999.90;;;8.80;99.40;;;;;;4825214;29;20197;-78
2021/04/04 11:47:29;;;;;;;1999.90;999.90;;;8.90;97.40;;;;;;4824966;29;20196;-78
2021/04/04 11:49:55;;;;;;;1999.90;999.90;;;8.80;96.70;;;;;;4810285;29;20637;-78
2021/04/04 11:52:21;;;;;;;1999.90;999.90;;;8.80;97.20;;;;;;4809162;29;20206;-78
2021/04/04 11:54:49;;;;;;;1999.90;999.90;;;8.80;97.80;;;;;;4809143;29;20181;-78
2021/04/04 11:57:32;;;;;;;1999.90;999.90;;;8.90;96.90;;;;;;4809094;29;20192;-78
2021/04/04 12:00:09;;;;;;;1999.90;999.90;;;9.10;95.30;;;;;;4825767;29;20625;-78
2021/04/04 12:02:37;;;;;;;1999.90;999.90;;;9.10;95.40;;;;;;4825385;29;20224;-78
2021/04/04 12:05:11;;;;;;;1999.90;999.90;;;9.20;94.90;;;;;;4825496;29;20526;-78
2021/04/04 12:07:47;;;;;;;1999.90;999.90;;;9.10;94.60;;;;;;4825778;29;20544;-78
2021/04/04 12:10:16;;;;;;;1999.90;999.90;;;9.10;94.40;;;;;;4825736;29;20220;-78
2021/04/04 12:12:43;;;;;;;1999.90;999.90;;;9.10;95.40;;;;;;4808729;29;20173;-78
2021/04/04 12:15:11;;;;;;;1999.90;999.90;;;9.30;95.70;;;;;;4825239;29;20176;-78
2021/04/04 12:17:37;;;;;;;1999.90;999.90;;;9.40;95.30;;;;;;4825479;29;20216;-78
2021/04/04 12:20:05;;;;;;;1999.90;999.90;;;9.40;94.70;;;;;;4825236;29;20299;-78
2021/04/04 12:22:41;;;;;;;1999.90;999.90;;;9.40;95.30;;;;;;4825871;29;20179;-78
2021/04/04 12:25:18;;;;;;;1999.90;999.90;;;9.40;93.00;;;;;;4826164;29;20157;-78
2021/04/04 12:27:46;;;;;;;1999.90;999.90;;;9.30;93.20;;;;;;4825454;29;20222;-78
2021/04/04 12:30:27;;;;;;;1999.90;999.90;;;9.30;93.90;;;;;;4825935;29;20270;-78
2021/04/04 12:33:17;;;;;;;1999.90;999.90;;;9.40;94.90;;;;;;4825862;29;20190;-78
2021/04/04 12:35:48;;;;;;;1999.90;999.90;;;9.50;94.10;;;;;;4810390;29;20193;-78
2021/04/04 12:38:29;;;;;;;1999.90;999.90;;;9.50;93.90;;;;;;4828460;29;20164;-78